Time;durP1;ratioP1;P1;durP2;ratioP2;P2;SDS_P1;SDS_P2;PMS_P1;PMS_P2;Temp;Humidity;BMP_temperature;BMP_pressure;BME280_temperature;BME280_humidity;BME280_pressure;Samples;Min_cycle;Max_cycle;Signal;HPM_P1;HPM_P2
2022/12/19 00:04:20;;;;;;;69.50;25.70;;;;;;;-9.57;86.69;100583.07;421572;1302;99272;-39
2022/12/19 00:14:27;;;;;;;62.90;24.20;;;;;;;-9.58;86.71;100549.83;421399;1299;107764;-40
2022/12/19 00:24:33;;;;;;;64.60;25.00;;;;;;;-9.58;86.76;100548.13;421318;1299;98510;-41
2022/12/19 00:34:41;;;;;;;51.90;23.90;;;;;;;-9.61;86.73;100543.27;421482;1298;111077;-40
2022/12/19 00:44:47;;;;;;;57.60;26.00;;;;;;;-9.68;86.62;100540.47;421397;1302;106999;-40
2022/12/19 00:54:54;;;;;;;50.80;22.10;;;;;;;-9.73;86.50;100547.27;421476;1296;99245;-46
2022/12/19 01:05:02;;;;;;;44.30;18.30;;;;;;;-9.77;86.78;100536.50;421552;1287;107890;-41
2022/12/19 01:15:10;;;;;;;56.00;24.50;;;;;;;-9.81;86.36;100527.77;421621;1300;97998;-41
2022/12/19 01:25:17;;;;;;;52.30;22.90;;;;;;;-9.91;86.43;100520.79;421553;1302;110835;-40
2022/12/19 01:35:24;;;;;;;54.10;22.40;;;;;;;-9.89;86.65;100493.61;421618;1298;108371;-40
2022/12/19 01:45:29;;;;;;;56.50;23.10;;;;;;;-9.91;86.57;100464.67;421769;1298;99373;-40
2022/12/19 01:55:44;;;;;;;57.60;22.90;;;;;;;-9.85;86.62;100443.80;421529;1298;108458;-40
2022/12/19 02:05:53;;;;;;;61.60;26.40;;;;;;;-9.75;86.91;100431.98;421585;1295;99364;-40
2022/12/19 02:16:09;;;;;;;63.00;28.20;;;;;;;-9.71;86.85;100437.12;421555;1290;111148;-42
2022/12/19 02:37:04;;;;;;;57.40;25.70;;;;;;;-9.62;86.49;100434.57;420930;1259;285442;-40
2022/12/19 02:47:14;;;;;;;48.00;22.50;;;;;;;-9.63;86.43;100433.05;420540;1290;109428;-40
2022/12/19 02:57:24;;;;;;;49.30;23.70;;;;;;;-9.60;86.47;100421.19;420717;1298;99227;-41
2022/12/19 03:07:32;;;;;;;73.20;26.30;;;;;;;-9.47;86.50;100420.33;420621;1298;112111;-39
2022/12/19 03:17:38;;;;;;;66.70;26.60;;;;;;;-9.36;86.61;100401.30;420746;1299;108336;-40
2022/12/19 03:27:47;;;;;;;54.30;23.50;;;;;;;-9.29;86.63;100389.38;420650;1298;99223;-40
2022/12/19 03:38:02;;;;;;;54.60;21.50;;;;;;;-9.20;86.46;100389.25;420728;1304;107431;-40
2022/12/19 03:48:16;;;;;;;52.80;21.80;;;;;;;-9.20;86.36;100377.45;420618;1299;98033;-41
2022/12/19 03:58:27;;;;;;;50.40;21.40;;;;;;;-9.25;86.05;100382.05;420708;1298;111119;-42
2022/12/19 04:08:35;;;;;;;58.70;26.40;;;;;;;-9.28;86.22;100384.02;420740;1299;107673;-40
2022/12/19 04:18:40;;;;;;;45.60;23.30;;;;;;;-9.33;86.27;100371.76;420537;1292;101590;-41
2022/12/19 04:28:45;;;;;;;50.40;23.00;;;;;;;-9.33;86.09;100357.96;420800;1301;108246;-40
2022/12/19 04:38:53;;;;;;;53.00;23.40;;;;;;;-9.36;86.19;100354.17;420783;1299;99342;-40
2022/12/19 04:49:00;;;;;;;58.00;24.80;;;;;;;-9.39;85.96;100351.23;420748;1304;111293;-40
2022/12/19 04:59:08;;;;;;;50.00;21.00;;;;;;;-9.49;85.89;100341.20;420593;1293;107253;-40
2022/12/19 05:09:16;;;;;;;55.00;24.50;;;;;;;-9.55;85.86;100330.16;420635;1304;98387;-40
2022/12/19 05:19:23;;;;;;;55.80;24.80;;;;;;;-9.55;86.04;100322.83;420559;1297;107749;-42
2022/12/19 05:29:31;;;;;;;61.40;26.40;;;;;;;-9.59;85.90;100319.76;421390;1304;99315;-40
2022/12/19 05:39:38;;;;;;;70.70;31.20;;;;;;;-9.62;85.75;100306.88;420700;1291;112971;-41
2022/12/19 05:49:45;;;;;;;88.10;31.90;;;;;;;-9.79;85.63;100303.98;420531;1291;106398;-41
2022/12/19 06:09:58;;;;;;;75.40;31.40;;;;;;;-9.58;85.77;100307.05;420677;1299;107091;-40
2022/12/19 06:20:07;;;;;;;65.60;31.80;;;;;;;-9.73;85.71;100302.55;420700;1298;99221;-39
2022/12/19 06:30:15;;;;;;;67.30;31.10;;;;;;;-9.83;85.74;100300.39;420897;1298;110898;-40
2022/12/19 06:50:44;;;;;;;74.00;31.80;;;;;;;-9.86;85.49;100288.91;420664;1298;98349;-40
2022/12/19 07:00:51;;;;;;;73.40;33.10;;;;;;;-9.87;85.58;100288.64;420766;1298;107163;-40
2022/12/19 07:10:59;;;;;;;77.30;35.70;;;;;;;-9.73;85.63;100290.10;420922;1299;99243;-41
2022/12/19 07:21:06;;;;;;;63.00;29.10;;;;;;;-9.72;85.29;100292.43;420638;1298;110613;-41
2022/12/19 07:31:13;;;;;;;86.20;41.20;;;;;;;-9.78;85.35;100291.82;420883;1298;106636;-40
2022/12/19 07:41:21;;;;;;;135.90;48.90;;;;;;;-9.63;85.59;100289.20;420570;1298;98870;-41
2022/12/19 07:51:28;;;;;;;103.80;50.30;;;;;;;-9.42;85.55;100274.50;420605;1292;107856;-40
2022/12/19 08:01:36;;;;;;;114.90;52.60;;;;;;;-8.72;85.59;100271.83;420671;1289;99233;-41
2022/12/19 08:11:44;;;;;;;113.60;43.70;;;;;;;-8.12;85.71;100274.34;420650;1298;111459;-40
2022/12/19 08:21:51;;;;;;;101.70;45.30;;;;;;;-6.76;86.12;100263.95;420552;1298;107511;-40
2022/12/19 08:31:58;;;;;;;129.70;52.40;;;;;;;-5.33;86.00;100240.71;420637;1298;98838;-41
2022/12/19 08:42:05;;;;;;;152.00;58.80;;;;;;;-4.92;84.67;100247.30;420707;1291;109769;-39
2022/12/19 08:52:12;;;;;;;125.60;54.40;;;;;;;-5.15;84.08;100248.83;420607;1291;99138;-40
2022/12/19 09:02:19;;;;;;;151.10;57.00;;;;;;;-5.44;83.68;100249.14;420693;1291;113069;-39
2022/12/19 09:12:26;;;;;;;153.50;58.80;;;;;;;-5.63;83.57;100215.39;420724;1291;107216;-40
2022/12/19 09:22:34;;;;;;;150.00;52.30;;;;;;;-5.62;83.22;100215.98;420715;1290;98841;-40
2022/12/19 09:32:41;;;;;;;116.60;48.80;;;;;;;-5.33;83.44;100206.23;420619;1298;107784;-40
2022/12/19 09:43:00;;;;;;;80.30;33.70;;;;;;;-5.28;83.33;100188.40;420766;1292;98044;-40
2022/12/19 10:03:25;;;;;;;90.70;32.90;;;;;;;-4.66;82.76;100161.17;420689;1291;107305;-40
2022/12/19 10:13:33;;;;;;;109.70;41.00;;;;;;;-4.61;82.60;100147.98;420643;1298;99246;-40
2022/12/19 10:23:46;;;;;;;95.60;35.90;;;;;;;-4.47;82.63;100137.80;420680;1291;111985;-40
2022/12/19 10:33:53;;;;;;;64.40;27.80;;;;;;;-4.21;82.46;100117.91;420786;1291;107328;-40
2022/12/19 10:44:01;;;;;;;82.80;34.10;;;;;;;-3.59;82.36;100094.44;420765;1285;98863;-39
2022/12/19 10:54:09;;;;;;;90.00;35.30;;;;;;;-3.32;82.00;100070.70;420686;1292;108758;-39
2022/12/19 11:04:34;;;;;;;88.90;33.10;;;;;;;-3.15;81.92;100056.41;420871;1292;98269;-40
2022/12/19 11:14:42;;;;;;;67.50;28.00;;;;;;;-3.08;81.78;100042.46;420697;1292;112990;-40
2022/12/19 11:25:15;;;;;;;64.90;31.30;;;;;;;-2.90;81.27;100022.85;420601;1291;108104;-39
2022/12/19 11:35:48;;;;;;;74.40;33.90;;;;;;;-2.75;81.29;100003.83;420671;1287;99358;-39
2022/12/19 11:45:55;;;;;;;82.40;36.80;;;;;;;-2.63;81.26;99986.60;420650;1299;108799;-42
2022/12/19 11:56:09;;;;;;;74.60;31.20;;;;;;;-2.56;80.97;99978.10;420701;1292;99223;-40
2022/12/19 12:06:24;;;;;;;72.50;31.20;;;;;;;-2.34;81.26;99974.08;420581;1298;112324;-40
2022/12/19 12:16:35;;;;;;;89.20;38.50;;;;;;;-2.17;81.44;99961.35;420632;1291;107519;-40
2022/12/19 12:37:45;;;;;;;91.80;39.30;;;;;;;-2.19;81.06;99929.03;420773;1291;112203;-39
2022/12/19 12:48:14;;;;;;;58.50;29.80;;;;;;;-2.08;81.10;99914.26;420618;1292;107291;-45
2022/12/19 12:58:44;;;;;;;105.30;44.60;;;;;;;-2.12;81.43;99905.02;420746;1292;97974;-40
2022/12/19 13:08:53;;;;;;;112.50;46.80;;;;;;;-2.21;81.50;99896.55;420600;1299;112315;-40
2022/12/19 13:19:02;;;;;;;104.20;48.00;;;;;;;-2.40;81.45;99881.78;420723;1299;107802;-40
2022/12/19 13:50:04;;;;;;;122.70;51.50;;;;;;;-2.80;81.52;99857.70;420728;1291;98656;-43
2022/12/19 14:00:17;;;;;;;133.00;57.60;;;;;;;-3.06;81.90;99856.70;420755;1297;110979;-41
2022/12/19 14:10:29;;;;;;;85.90;42.20;;;;;;;-3.25;81.88;99843.78;420737;1298;109409;-40
2022/12/19 14:21:07;;;;;;;107.40;44.50;;;;;;;-3.34;82.07;99843.27;420630;1295;98831;-40
2022/12/19 14:31:37;;;;;;;130.50;55.60;;;;;;;-3.50;82.30;99823.03;420740;1290;112933;-40
2022/12/19 14:52:49;;;;;;;89.40;37.60;;;;;;;-3.73;82.99;99786.77;420623;1291;99278;-40
2022/12/19 15:13:29;;;;;;;115.90;51.20;;;;;;;-3.88;83.42;99754.31;420806;1291;98062;-41
2022/12/19 15:23:57;;;;;;;87.60;39.80;;;;;;;-3.85;83.92;99749.91;420586;1298;110859;-39
2022/12/19 15:34:02;;;;;;;86.80;35.80;;;;;;;-3.74;83.98;99750.16;420607;1294;107413;-41
2022/12/19 15:44:29;;;;;;;103.60;41.00;;;;;;;-3.70;84.19;99751.63;420680;1291;98748;-41
2022/12/19 15:54:36;;;;;;;78.90;34.10;;;;;;;-3.72;84.49;99739.02;420562;1283;106966;-42
2022/12/19 16:04:55;;;;;;;39.70;21.50;;;;;;;-3.52;84.71;99727.16;420810;1291;99370;-40
2022/12/19 16:35:35;;;;;;;60.60;24.30;;;;;;;-3.17;84.89;99709.53;420789;1298;98840;-40
2022/12/19 16:46:04;;;;;;;42.50;19.80;;;;;;;-3.17;84.97;99690.89;420679;1298;113140;-41
2022/12/19 16:56:09;;;;;;;40.20;20.40;;;;;;;-2.95;84.94;99681.52;420665;1290;106408;-41
2022/12/19 17:06:18;;;;;;;50.80;20.40;;;;;;;-2.71;85.14;99659.07;420695;1298;99249;-41
2022/12/19 17:16:25;;;;;;;51.10;21.00;;;;;;;-2.60;85.12;99649.23;420585;1291;109393;-40
2022/12/19 17:26:33;;;;;;;48.40;19.70;;;;;;;-2.49;85.06;99639.04;420810;1277;99249;-41
2022/12/19 17:36:39;;;;;;;35.70;17.00;;;;;;;-2.27;84.72;99638.84;421409;1298;109295;-40
2022/12/19 17:56:53;;;;;;;43.60;20.40;;;;;;;-2.04;84.61;99621.40;420877;1299;98863;-40
2022/12/19 18:17:10;;;;;;;30.80;15.20;;;;;;;-1.79;84.18;99624.20;420621;1298;109442;-42
2022/12/19 18:27:15;;;;;;;43.00;16.90;;;;;;;-1.65;84.25;99616.62;420731;1292;99233;-41
2022/12/19 18:37:22;;;;;;;35.50;16.50;;;;;;;-1.60;83.82;99603.95;420683;1298;108717;-40
2022/12/19 18:47:29;;;;;;;31.90;14.60;;;;;;;-1.54;83.66;99591.82;420687;1298;98441;-40
2022/12/19 18:57:36;;;;;;;31.00;13.90;;;;;;;-1.40;83.54;99574.22;420901;1292;111412;-39
2022/12/19 19:17:48;;;;;;;39.90;17.90;;;;;;;-1.29;83.09;99560.31;420701;1298;99371;-41
2022/12/19 19:27:56;;;;;;;25.40;11.70;;;;;;;-1.21;82.61;99563.07;420627;1291;107525;-41
2022/12/19 19:38:06;;;;;;;31.60;14.30;;;;;;;-1.13;82.65;99557.20;420619;1298;99249;-39
2022/12/19 19:48:14;;;;;;;42.10;17.70;;;;;;;-1.12;82.50;99541.74;420746;1298;112335;-41
2022/12/19 19:58:21;;;;;;;39.40;17.90;;;;;;;-1.13;82.53;99544.61;420665;1292;106748;-40
2022/12/19 20:08:28;;;;;;;28.40;13.20;;;;;;;-1.05;82.25;99545.92;420650;1283;99223;-40
2022/12/19 20:18:49;;;;;;;33.30;13.00;;;;;;;-0.90;82.29;99532.86;420763;1298;112054;-40
2022/12/19 20:28:55;;;;;;;36.10;15.60;;;;;;;-0.88;82.30;99522.83;420608;1292;106870;-40
2022/12/19 20:39:03;;;;;;;27.50;13.30;;;;;;;-0.90;82.44;99517.44;420703;1298;98035;-42
2022/12/19 20:49:10;;;;;;;26.00;12.20;;;;;;;-0.76;82.27;99509.11;420543;1298;108723;-41
2022/12/19 21:09:25;;;;;;;36.90;15.50;;;;;;;-0.74;82.23;99500.79;420667;1298;112833;-40
2022/12/19 21:19:32;;;;;;;24.60;12.20;;;;;;;-0.66;81.95;99504.41;420729;1299;107253;-40
2022/12/19 21:29:40;;;;;;;39.50;15.30;;;;;;;-0.58;81.82;99498.48;420706;1298;98612;-40
2022/12/19 21:39:48;;;;;;;38.80;16.40;;;;;;;-0.61;81.88;99499.14;420750;1296;112111;-39
2022/12/19 21:49:55;;;;;;;29.70;14.10;;;;;;;-0.64;81.88;99492.26;420553;1290;109321;-39
2022/12/19 22:00:02;;;;;;;18.20;10.40;;;;;;;-0.57;81.74;99482.27;420699;1285;99220;-40
2022/12/19 22:10:11;;;;;;;33.40;16.20;;;;;;;-0.51;81.64;99473.93;420789;1294;107440;-38
2022/12/19 22:20:18;;;;;;;33.00;15.50;;;;;;;-0.54;81.79;99469.36;420696;1284;98147;-40
2022/12/19 22:30:26;;;;;;;25.70;12.20;;;;;;;-0.52;81.84;99457.91;420680;1298;111425;-40
2022/12/19 22:40:33;;;;;;;35.70;15.70;;;;;;;-0.45;82.04;99454.20;420666;1295;109043;-40
2022/12/19 22:50:44;;;;;;;32.70;15.50;;;;;;;-0.46;82.06;99454.67;420611;1296;99240;-40
2022/12/19 23:00:51;;;;;;;31.70;14.40;;;;;;;-0.51;82.26;99446.27;420570;1298;107461;-40
2022/12/19 23:10:59;;;;;;;24.50;12.60;;;;;;;-0.42;82.05;99433.48;420571;1298;98084;-40
2022/12/19 23:21:04;;;;;;;31.70;15.00;;;;;;;-0.35;82.13;99430.27;420622;1299;112048;-39
2022/12/19 23:31:15;;;;;;;36.40;16.30;;;;;;;-0.37;82.14;99420.23;420481;1288;109953;-39
2022/12/19 23:41:24;;;;;;;24.60;12.60;;;;;;;-0.35;81.94;99419.16;420607;1290;99252;-39
2022/12/19 23:51:31;;;;;;;36.50;17.00;;;;;;;-0.27;81.96;99431.60;420516;1292;108041;-40
